createdAt,value
2018-04-08T00:00:01.301Z,58.46
2018-04-08T00:02:29.664Z,58.49
2018-04-08T00:04:57.739Z,58.41
2018-04-08T00:07:25.871Z,58.48
2018-04-08T00:09:53.989Z,58.36
2018-04-08T00:12:22.959Z,58.50
2018-04-08T00:14:51.334Z,58.67
2018-04-08T00:17:19.439Z,58.83
2018-04-08T00:19:47.533Z,58.66
2018-04-08T00:22:15.706Z,59.55
2018-04-08T00:24:43.811Z,59.23
2018-04-08T00:27:12.837Z,59.12
2018-04-08T00:29:40.938Z,59.21
2018-04-08T00:32:09.086Z,59.31
2018-04-08T00:47:37.204Z,59.52
2018-04-08T00:50:05.307Z,59.60
2018-04-08T00:52:33.426Z,59.48
2018-04-08T00:55:01.548Z,59.45
2018-04-08T00:57:29.649Z,59.19
2018-04-08T00:59:57.781Z,59.02
2018-04-08T01:02:27.231Z,58.79
2018-04-08T01:04:55.346Z,59.02
2018-04-08T01:07:23.460Z,59.03
2018-04-08T01:09:51.582Z,59.66
2018-04-08T01:12:19.665Z,60.02
2018-04-08T01:14:47.782Z,59.83
2018-04-08T01:17:16.201Z,60.46
2018-04-08T01:19:44.325Z,60.13
2018-04-08T01:22:12.449Z,60.12
2018-04-08T01:24:41.314Z,60.14
2018-04-08T01:27:09.458Z,60.45
2018-04-08T01:29:37.555Z,60.58
2018-04-08T01:32:06.267Z,60.80
2018-04-08T01:34:34.397Z,61.02
2018-04-08T01:37:02.522Z,60.88
2018-04-08T01:39:30.629Z,61.50
2018-04-08T01:41:58.721Z,61.28
2018-04-08T01:44:27.645Z,61.17
2018-04-08T01:46:55.815Z,61.25
2018-04-08T01:49:24.827Z,61.26
2018-04-08T01:51:53.762Z,61.25
2018-04-08T01:54:22.236Z,61.24
2018-04-08T01:56:50.329Z,61.30
2018-04-08T01:59:18.640Z,60.98
2018-04-08T02:01:46.742Z,61.05
2018-04-08T02:04:14.874Z,61.11
2018-04-08T02:06:43.841Z,61.33
2018-04-08T02:09:12.427Z,61.38
2018-04-08T02:11:40.931Z,61.67
2018-04-08T02:14:09.091Z,61.82
2018-04-08T02:16:37.212Z,61.59
2018-04-08T02:19:05.346Z,61.23
2018-04-08T02:21:34.020Z,61.38
2018-04-08T02:24:02.194Z,61.38
2018-04-08T02:26:30.288Z,61.81
2018-04-08T02:28:58.397Z,61.67
2018-04-08T02:31:26.506Z,61.58
2018-04-08T02:33:55.264Z,62.38
2018-04-08T02:36:23.751Z,61.99
2018-04-08T02:38:52.877Z,62.08
2018-04-08T02:41:21.001Z,62.00
2018-04-08T02:43:49.130Z,62.09
2018-04-08T02:46:17.250Z,62.81
2018-04-08T02:48:45.955Z,63.07
2018-04-08T02:51:14.695Z,62.63
2018-04-08T02:53:42.835Z,62.57
2018-04-08T02:56:11.956Z,62.65
2018-04-08T02:58:40.154Z,62.46
2018-04-08T03:01:08.250Z,62.51
2018-04-08T03:03:36.346Z,62.37
2018-04-08T03:06:05.267Z,62.27
2018-04-08T03:08:33.373Z,62.98
2018-04-08T03:11:01.467Z,63.30
2018-04-08T03:13:29.588Z,63.33
2018-04-08T03:15:58.845Z,64.07
2018-04-08T03:18:27.201Z,63.98
2018-04-08T03:20:55.346Z,64.10
2018-04-08T03:23:23.430Z,64.17
2018-04-08T03:25:51.536Z,64.01
2018-04-08T03:28:19.652Z,64.21
2018-04-08T03:30:48.637Z,64.37
2018-04-08T03:33:17.372Z,64.31
2018-04-08T03:35:45.526Z,64.66
2018-04-08T03:38:13.632Z,64.76
2018-04-08T03:40:41.727Z,64.46
2018-04-08T03:43:09.838Z,64.44
2018-04-08T03:45:38.742Z,64.53
2018-04-08T03:48:07.722Z,64.66
2018-04-08T03:50:35.824Z,64.57
2018-04-08T03:53:03.923Z,64.40
2018-04-08T03:55:32.042Z,64.74
2018-04-08T03:58:00.138Z,64.86
2018-04-08T04:00:28.242Z,64.94
2018-04-08T04:02:56.349Z,64.96
2018-04-08T04:18:42.310Z,66.18
2018-04-08T04:21:22.343Z,66.29
2018-04-08T04:26:54.079Z,66.13
2018-04-08T04:29:22.256Z,66.46
2018-04-08T04:31:51.351Z,66.97
2018-04-08T04:34:19.820Z,67.36
2018-04-08T04:36:47.926Z,67.63
2018-04-08T04:39:16.014Z,67.70
2018-04-08T04:41:44.144Z,67.74
2018-04-08T04:44:12.243Z,67.97
2018-04-08T04:46:40.336Z,67.70
2018-04-08T05:02:13.463Z,69.39
2018-04-08T05:04:41.652Z,68.92
2018-04-08T05:07:10.296Z,68.71
2018-04-08T05:09:38.384Z,68.55
2018-04-08T05:12:06.555Z,68.47
2018-04-08T05:14:35.363Z,68.09
2018-04-08T05:17:03.466Z,68.21
2018-04-08T05:19:31.597Z,68.29
2018-04-08T05:21:59.730Z,68.09
2018-04-08T05:24:27.829Z,68.25
2018-04-08T05:26:55.963Z,68.08
2018-04-08T05:29:24.067Z,68.07
2018-04-08T05:31:52.188Z,67.70
2018-04-08T05:34:20.766Z,67.59
2018-04-08T05:36:48.865Z,67.70
2018-04-08T05:39:16.991Z,67.45
2018-04-08T05:41:45.106Z,67.26
2018-04-08T05:44:13.279Z,67.22
2018-04-08T05:46:41.394Z,67.22
2018-04-08T05:49:09.522Z,67.32
2018-04-08T05:51:37.623Z,67.22
2018-04-08T05:54:06.517Z,66.98
2018-04-08T05:56:34.687Z,66.98
2018-04-08T05:59:03.359Z,67.10
2018-04-08T06:01:31.463Z,67.52
2018-04-08T06:03:59.584Z,67.54
2018-04-08T06:06:28.454Z,67.71
2018-04-08T06:08:56.554Z,67.29
2018-04-08T06:11:24.746Z,67.31
2018-04-08T06:13:52.912Z,67.24
2018-04-08T06:16:21.011Z,67.00
2018-04-08T06:18:49.136Z,67.07
2018-04-08T06:21:17.251Z,67.04
2018-04-08T06:23:45.409Z,66.43
2018-04-08T06:26:13.548Z,66.46
2018-04-08T06:28:41.738Z,66.40
2018-04-08T06:31:09.825Z,66.41
2018-04-08T06:33:37.931Z,66.39
2018-04-08T06:36:06.726Z,66.09
2018-04-08T06:38:35.453Z,66.42
2018-04-08T06:41:03.558Z,66.11
2018-04-08T06:53:16.694Z,65.29
2018-04-08T06:55:44.786Z,65.09
2018-04-08T06:58:12.903Z,64.67
2018-04-08T07:00:41.966Z,64.46
2018-04-08T07:03:10.214Z,64.31
2018-04-08T07:05:38.308Z,63.66
2018-04-08T07:08:07.428Z,63.50
2018-04-08T07:10:35.554Z,63.62
2018-04-08T07:13:03.645Z,63.88
2018-04-08T07:15:31.772Z,63.87
2018-04-08T07:18:00.836Z,63.65
2018-04-08T07:20:29.399Z,63.91
2018-04-08T07:22:57.528Z,63.79
2018-04-08T07:25:26.364Z,63.06
2018-04-08T07:27:54.644Z,62.28
2018-04-08T07:30:22.813Z,61.86
2018-04-08T07:32:51.942Z,61.29
2018-04-08T07:35:20.362Z,60.66
2018-04-08T07:37:48.822Z,59.92
2018-04-08T07:40:17.856Z,59.23
2018-04-08T07:42:45.990Z,59.27
2018-04-08T07:45:14.730Z,58.59
2018-04-08T07:47:42.918Z,57.54
2018-04-08T07:50:11.034Z,56.94
2018-04-08T07:52:39.139Z,56.16
2018-04-08T07:55:07.320Z,55.57
2018-04-08T07:57:35.470Z,55.84
2018-04-08T08:00:03.624Z,57.02
2018-04-08T08:02:31.787Z,57.46
2018-04-08T08:05:00.334Z,57.54
2018-04-08T08:07:29.651Z,57.40
2018-04-08T08:09:57.789Z,57.28
2018-04-08T08:12:26.434Z,57.00
2018-04-08T08:14:54.534Z,57.35
2018-04-08T08:17:22.634Z,57.21
2018-04-08T08:19:50.762Z,58.12
2018-04-08T08:22:18.866Z,57.71
2018-04-08T08:24:47.062Z,56.88
2018-04-08T08:27:15.196Z,56.87
2018-04-08T08:29:43.325Z,57.54
2018-04-08T08:32:11.414Z,56.89
2018-04-08T08:34:39.525Z,56.01
2018-04-08T08:37:07.748Z,56.03
2018-04-08T08:39:36.482Z,56.19
2018-04-08T08:42:04.596Z,56.05
2018-04-08T08:44:32.722Z,55.61
2018-04-08T08:47:00.835Z,55.71
2018-04-08T08:49:28.927Z,55.78
2018-04-08T08:51:57.064Z,55.62
2018-04-08T08:54:25.180Z,55.79
2018-04-08T08:56:54.006Z,55.38
2018-04-08T08:59:22.365Z,55.43
2018-04-08T09:01:50.449Z,55.43
2018-04-08T09:04:18.544Z,55.68
2018-04-08T09:06:47.639Z,55.62
2018-04-08T09:09:16.010Z,55.66
2018-04-08T09:11:44.114Z,56.14
2018-04-08T09:14:12.211Z,55.61
2018-04-08T09:16:40.444Z,55.40
2018-04-08T09:19:09.567Z,55.21
2018-04-08T09:24:46.035Z,55.34
2018-04-08T09:27:14.275Z,55.63
2018-04-08T09:29:43.935Z,55.65
2018-04-08T09:32:12.001Z,55.96
2018-04-08T09:34:40.145Z,56.35
2018-04-08T09:37:08.251Z,56.63
2018-04-08T09:39:36.443Z,56.63
2018-04-08T09:42:04.569Z,56.43
2018-04-08T09:44:33.042Z,56.07
2018-04-08T10:00:06.247Z,55.47
2018-04-08T10:02:36.344Z,55.34
2018-04-08T10:05:04.438Z,55.12
2018-04-08T10:07:32.975Z,54.69
2018-04-08T10:10:01.072Z,54.31
2018-04-08T10:12:30.117Z,54.74
2018-04-08T10:14:59.115Z,54.64
2018-04-08T10:17:28.795Z,54.64
2018-04-08T10:19:56.889Z,54.94
2018-04-08T10:35:25.260Z,55.41
2018-04-08T10:37:53.367Z,55.08
2018-04-08T10:40:21.535Z,55.22
2018-04-08T10:42:50.505Z,54.37
2018-04-08T10:45:18.615Z,54.53
2018-04-08T10:47:47.393Z,54.45
2018-04-08T10:50:15.519Z,54.46
2018-04-08T10:52:43.621Z,54.51
2018-04-08T10:55:11.776Z,54.77
2018-04-08T10:57:39.894Z,54.34
2018-04-08T11:00:07.999Z,54.23
2018-04-08T11:02:36.107Z,54.51
2018-04-08T11:05:04.275Z,54.77
2018-04-08T11:07:32.373Z,54.88
2018-04-08T11:10:00.722Z,54.71
2018-04-08T11:12:28.815Z,54.24
2018-04-08T11:14:56.923Z,54.45
2018-04-08T11:17:25.923Z,54.26
2018-04-08T11:19:54.039Z,54.51
2018-04-08T11:22:22.161Z,54.00
2018-04-08T11:24:50.308Z,53.90
2018-04-08T11:27:18.417Z,53.93
2018-04-08T11:29:46.523Z,53.82
2018-04-08T11:32:14.646Z,53.88
2018-04-08T11:34:42.795Z,53.14
2018-04-08T11:37:11.246Z,53.24
2018-04-08T11:39:39.329Z,53.43
2018-04-08T11:42:07.433Z,53.65
2018-04-08T11:44:35.549Z,52.83
2018-04-08T11:47:03.687Z,53.19
2018-04-08T11:49:31.791Z,53.33
2018-04-08T11:52:00.186Z,52.75
2018-04-08T11:54:28.321Z,52.09
2018-04-08T11:56:56.417Z,52.23
2018-04-08T11:59:24.525Z,52.24
2018-04-08T12:01:52.646Z,52.61
2018-04-08T12:04:20.760Z,51.69
2018-04-08T12:06:48.883Z,51.71
2018-04-08T12:09:17.005Z,51.73
2018-04-08T12:11:45.697Z,52.02
2018-04-08T12:14:13.791Z,51.13
2018-04-08T12:16:41.925Z,50.29
2018-04-08T12:19:10.036Z,51.24
2018-04-08T12:21:38.143Z,50.50
2018-04-08T12:24:06.263Z,51.25
2018-04-08T12:26:49.242Z,51.37
2018-04-08T12:29:17.371Z,50.27
2018-04-08T12:31:45.775Z,49.72
2018-04-08T12:47:13.899Z,50.59
2018-04-08T12:49:42.011Z,49.59
2018-04-08T12:52:10.123Z,48.37
2018-04-08T12:54:38.562Z,48.14
2018-04-08T12:57:07.311Z,49.11
2018-04-08T12:59:35.427Z,50.83
2018-04-08T13:02:03.532Z,51.19
2018-04-08T13:04:31.664Z,51.28
2018-04-08T13:07:00.530Z,52.32
2018-04-08T13:09:28.636Z,52.70
2018-04-08T13:24:56.758Z,54.48
2018-04-08T13:27:24.888Z,54.19
2018-04-08T13:29:53.842Z,54.20
2018-04-08T13:32:22.010Z,54.43
2018-04-08T13:34:50.110Z,54.62
2018-04-08T13:37:18.878Z,54.61
2018-04-08T13:39:47.050Z,55.14
2018-04-08T13:42:15.145Z,55.39
2018-04-08T13:44:43.241Z,55.52
2018-04-08T13:47:13.149Z,55.52
2018-04-08T13:49:41.262Z,55.27
2018-04-08T13:52:09.361Z,55.23
2018-04-08T13:54:37.493Z,55.36
2018-04-08T13:57:05.697Z,55.27
2018-04-08T13:59:34.141Z,55.74
2018-04-08T14:02:02.300Z,55.39
2018-04-08T14:04:31.619Z,55.37
2018-04-08T14:07:00.012Z,55.19
2018-04-08T14:09:28.101Z,55.23
2018-04-08T14:11:56.245Z,54.37
2018-04-08T14:14:24.360Z,54.25
2018-04-08T14:16:53.082Z,54.40
2018-04-08T14:19:21.202Z,54.58
2018-04-08T14:21:49.319Z,54.59
2018-04-08T14:24:17.530Z,54.38
2018-04-08T14:26:45.634Z,54.72
2018-04-08T14:29:13.746Z,54.20
2018-04-08T14:31:41.853Z,54.62
2018-04-08T14:34:09.971Z,54.81
2018-04-08T14:36:38.073Z,54.73
2018-04-08T14:39:06.179Z,54.90
2018-04-08T14:41:34.323Z,54.90
2018-04-08T14:44:02.676Z,54.83
2018-04-08T14:46:30.790Z,55.44
2018-04-08T14:48:58.928Z,55.31
2018-04-08T14:51:27.539Z,55.36
2018-04-08T14:53:55.683Z,56.14
2018-04-08T14:56:23.819Z,56.08
2018-04-08T14:58:51.958Z,55.90
2018-04-08T15:01:20.071Z,56.16
2018-04-08T15:03:48.181Z,56.43
2018-04-08T15:06:16.287Z,56.34
2018-04-08T15:08:44.406Z,56.31
2018-04-08T15:11:12.538Z,56.32
2018-04-08T15:13:40.954Z,56.34
2018-04-08T15:16:09.073Z,56.61
2018-04-08T15:18:37.187Z,57.02
2018-04-08T15:21:05.296Z,56.82
2018-04-08T15:23:33.389Z,56.67
2018-04-08T15:26:01.536Z,56.45
2018-04-08T15:28:29.938Z,56.52
2018-04-08T15:30:58.045Z,56.55
2018-04-08T15:33:26.462Z,56.25
2018-04-08T15:35:54.638Z,56.32
2018-04-08T15:38:22.741Z,56.38
2018-04-08T15:40:50.871Z,56.08
2018-04-08T15:43:19.054Z,55.78
2018-04-08T15:45:47.173Z,55.66
2018-04-08T15:48:15.277Z,55.71
2018-04-08T15:50:44.511Z,55.52
2018-04-08T15:53:13.512Z,55.62
2018-04-08T15:55:41.624Z,55.42
2018-04-08T15:58:09.728Z,55.25
2018-04-08T16:00:37.846Z,55.62
2018-04-08T16:03:05.977Z,55.47
2018-04-08T16:05:34.835Z,55.89
2018-04-08T16:08:03.011Z,55.79
2018-04-08T16:10:31.106Z,55.72
2018-04-08T16:12:59.228Z,55.80
2018-04-08T16:15:27.396Z,55.77
2018-04-08T16:17:55.464Z,55.61
2018-04-08T16:20:23.598Z,55.69
2018-04-08T16:22:51.715Z,55.49
2018-04-08T16:25:19.837Z,55.43
2018-04-08T16:27:48.305Z,55.40
2018-04-08T16:30:16.398Z,55.32
2018-04-08T16:32:44.504Z,55.34
2018-04-08T16:35:13.174Z,55.71
2018-04-08T16:37:41.262Z,55.14
2018-04-08T16:40:10.257Z,55.44
2018-04-08T16:42:38.378Z,55.71
2018-04-08T16:45:06.473Z,55.63
2018-04-08T16:47:34.586Z,55.61
2018-04-08T16:50:02.737Z,55.80
2018-04-08T16:52:30.862Z,56.16
2018-04-08T16:54:58.945Z,56.39
2018-04-08T16:57:27.122Z,56.49
2018-04-08T16:59:55.220Z,55.85
2018-04-08T17:02:23.323Z,56.66
2018-04-08T17:04:51.462Z,57.28
2018-04-08T17:07:20.350Z,57.69
2018-04-08T17:09:48.515Z,57.62
2018-04-08T17:12:16.625Z,57.63
2018-04-08T17:14:44.735Z,57.86
2018-04-08T17:17:13.529Z,57.78
2018-04-08T17:19:41.646Z,57.39
2018-04-08T17:22:09.853Z,57.69
2018-04-08T17:24:37.936Z,57.86
2018-04-08T17:27:06.777Z,57.89
2018-04-08T17:29:35.149Z,58.01
2018-04-08T17:32:03.246Z,58.34
2018-04-08T17:34:31.338Z,58.54
2018-04-08T17:37:00.186Z,58.79
2018-04-08T17:39:29.451Z,58.94
2018-04-08T17:41:57.616Z,59.30
2018-04-08T17:44:25.730Z,59.95
2018-04-08T17:46:53.824Z,60.43
2018-04-08T17:49:22.014Z,60.37
2018-04-08T17:51:50.102Z,60.01
2018-04-08T17:54:18.616Z,59.94
2018-04-08T17:56:46.894Z,60.17
2018-04-08T17:59:15.286Z,60.20
2018-04-08T18:01:43.412Z,60.50
2018-04-08T18:04:11.878Z,60.75
2018-04-08T18:06:39.975Z,60.64
2018-04-08T18:09:08.208Z,61.23
2018-04-08T18:11:36.314Z,61.20
2018-04-08T18:14:04.415Z,60.94
2018-04-08T18:16:32.525Z,61.39
2018-04-08T18:19:01.586Z,61.58
2018-04-08T18:21:29.698Z,62.06
2018-04-08T18:23:57.830Z,61.79
2018-04-08T18:26:26.022Z,61.39
2018-04-08T18:28:54.122Z,61.56
2018-04-08T18:31:22.214Z,61.25
2018-04-08T18:33:50.350Z,61.39
2018-04-08T18:36:18.867Z,61.34
2018-04-08T18:38:47.231Z,61.47
2018-04-08T18:41:15.366Z,61.42
2018-04-08T18:43:43.470Z,61.66
2018-04-08T18:46:11.590Z,61.90
2018-04-08T18:48:39.712Z,62.04
2018-04-08T18:51:07.920Z,61.85
2018-04-08T18:53:36.024Z,61.72
2018-04-08T18:56:04.134Z,61.66
2018-04-08T18:58:32.251Z,62.12
2018-04-08T19:01:01.107Z,62.93
2018-04-08T19:03:29.228Z,63.30
2018-04-08T19:05:57.326Z,63.47
2018-04-08T19:08:25.485Z,63.60
2018-04-08T19:10:54.119Z,63.23
2018-04-08T19:13:22.213Z,63.39
2018-04-08T19:15:50.723Z,63.82
2018-04-08T19:18:18.878Z,63.79
2018-04-08T19:20:47.732Z,63.85
2018-04-08T19:23:16.608Z,63.75
2018-04-08T19:38:44.735Z,64.26
2018-04-08T19:41:12.869Z,64.41
2018-04-08T19:43:41.003Z,64.85
2018-04-08T19:46:09.336Z,64.69
2018-04-08T19:48:37.435Z,65.26
2018-04-08T19:51:05.591Z,64.83
2018-04-08T19:53:34.135Z,64.37
2018-04-08T19:56:02.931Z,64.34
2018-04-08T19:58:31.050Z,64.17
2018-04-08T20:00:59.179Z,64.14
2018-04-08T20:03:28.105Z,64.84
2018-04-08T20:05:56.256Z,64.78
2018-04-08T20:08:24.378Z,64.93
2018-04-08T20:10:52.537Z,64.65
2018-04-08T20:13:21.566Z,65.09
2018-04-08T20:15:50.599Z,65.17
2018-04-08T20:18:18.675Z,65.32
2018-04-08T20:20:47.684Z,65.20
2018-04-08T20:23:15.901Z,65.17
2018-04-08T20:25:44.661Z,65.58
2018-04-08T20:28:13.214Z,65.40
2018-04-08T20:30:42.305Z,65.51
2018-04-08T20:33:10.406Z,65.96
2018-04-08T20:35:38.529Z,66.27
2018-04-08T20:38:07.301Z,66.56
2018-04-08T20:40:35.404Z,66.74
2018-04-08T20:43:03.535Z,66.72
2018-04-08T20:58:31.647Z,67.42
2018-04-08T21:00:59.816Z,67.29
2018-04-08T21:03:28.587Z,67.41
2018-04-08T21:05:56.763Z,67.71
2018-04-08T21:08:25.792Z,67.50
2018-04-08T21:10:53.907Z,67.38
2018-04-08T21:13:22.004Z,67.61
2018-04-08T21:15:55.066Z,67.93
2018-04-08T21:18:23.159Z,68.20
2018-04-08T21:20:51.263Z,68.12
2018-04-08T21:23:19.370Z,68.51
2018-04-08T21:25:47.841Z,67.90
2018-04-08T21:28:16.905Z,68.17
2018-04-08T21:30:45.002Z,68.43
2018-04-08T21:33:13.161Z,68.53
2018-04-08T21:35:41.272Z,68.51
2018-04-08T21:38:09.362Z,68.44
2018-04-08T21:40:37.491Z,68.27
2018-04-08T21:43:05.611Z,68.14
2018-04-08T21:45:33.735Z,68.02
2018-04-08T21:48:01.931Z,68.06
2018-04-08T22:03:30.983Z,68.51
2018-04-08T22:05:59.790Z,68.47
2018-04-08T22:08:28.757Z,68.61
2018-04-08T22:10:56.948Z,68.58
2018-04-08T22:13:25.038Z,68.23
2018-04-08T22:15:53.297Z,68.18
2018-04-08T22:18:21.416Z,67.82
2018-04-08T22:20:50.327Z,67.31
2018-04-08T22:23:18.445Z,67.27
2018-04-08T22:25:48.209Z,67.35
2018-04-08T22:28:16.294Z,67.61
2018-04-08T22:30:44.391Z,67.91
2018-04-08T22:33:12.541Z,67.78
2018-04-08T22:35:41.442Z,68.24
2018-04-08T22:38:09.525Z,68.20
2018-04-08T22:40:37.622Z,68.05
2018-04-08T22:43:05.750Z,68.05
2018-04-08T22:45:34.129Z,68.19
2018-04-08T22:48:02.233Z,68.06
2018-04-08T22:50:30.371Z,68.10
2018-04-08T22:52:58.489Z,68.10
2018-04-08T22:55:26.565Z,67.89
2018-04-08T22:57:54.705Z,67.94
2018-04-08T23:00:25.563Z,68.25
2018-04-08T23:02:53.711Z,68.21
2018-04-08T23:05:21.821Z,67.94
2018-04-08T23:07:49.945Z,68.35
2018-04-08T23:10:18.065Z,68.33
2018-04-08T23:12:46.162Z,68.72
2018-04-08T23:15:14.542Z,68.76
2018-04-08T23:17:42.728Z,68.32
2018-04-08T23:20:10.810Z,68.20
2018-04-08T23:22:38.926Z,68.00
2018-04-08T23:25:07.048Z,67.68
2018-04-08T23:27:35.151Z,67.45
2018-04-08T23:30:03.266Z,67.50
2018-04-08T23:32:31.385Z,67.66
2018-04-08T23:34:59.485Z,67.79
2018-04-08T23:37:28.427Z,68.17
2018-04-08T23:39:57.646Z,68.74
2018-04-08T23:42:25.799Z,69.26
2018-04-08T23:44:53.895Z,69.05
2018-04-08T23:47:22.791Z,69.24
2018-04-08T23:49:51.169Z,68.75
2018-04-08T23:52:19.262Z,69.06
2018-04-08T23:54:47.411Z,68.97
2018-04-08T23:57:15.578Z,69.39
2018-04-08T23:59:43.691Z,69.35
